Polk Army Air Field
KPOE : now visible

Airfield :











YOU CAN JOIN US ON...

 
LOGIN :

Register | Disclaimer

   EN    FR    IT 

 









Legend :    VFR   Marginal VFR   IFR   Intensive IFR   Very Intensive IFR
Visi :
Ceiling :
>= 8 km
>= 3000ft
5 to 8 km
1000 to 3000 ft
1500m to 5 km
500 to 1000 ft
800 to 1500m
200 to 500 ft
< 800m
< 200 ft
Symbols :   Thunderstorms  Fog  Heavy snow  Heavy precipitations  Wind > 20 kt






- Airport Elevation : 330 ft


KPOE - Polk Army Air Field

CURRENT METAR :
  • 190058Z AUTO 34006KT 10SM BKN070 16/14 A3019 RMK AO2 LTG DSNT E SLP224 T01590141

EXPIRED METARs :
  • 182358Z AUTO 36007KT 10SM BKN070 17/15 A3016 RMK AO2 LTG DSNT SE SLP214 60010 T01650148 10210 20165 52027
  • 182313Z AUTO 35008KT 10SM FEW008 SCT012 BKN070 OVC085 18/16 A3016 RMK AO2 LTG DSNT NE-E AND S SLP214

TAF TAF KPOE
Valid from the 19 at 00:00 until the 20 at 06:00 UTC


190000Z 1900/2006 36012KT 9999 FEW060 QNH3012INS
BECMG 1914/1915 01015G25KT 9999 SKC QNH3020INS
BECMG 1922/1923 04009KT 9999 SKC QNH3025INS TX16/1900Z TN04/1913Z



MET'MAP, your aeronautical weather chart ! - Copyright ORBIFLY December 2007 - Disclaimer

ORBIFLY MET'MAP TEAM :

Programming & Development : Alexandra Zaïnal
Concept & original design : Baudouin d'Aumeries
Assistance for programming : Marc-Olivier Méhu
Technical & hardware support : Manuel Goepfert

Contact : metmap@orbifly.com




SOURCES & CREDITS :

   NOAA       Earth
Advisory